CheckWX is a tool to help pilots better visualize weather data.  It is not intended as a substitute for an official pre-flight weather briefing.

01:52:21 UTC

ROAH TAF
Naha Airport
Naha, Japan
TAF ROAH 182306Z 1900/2006 35014KT 9999 FEW025 SCT045 BECMG 1912/1915 06006KT BECMG 1921/2000 14008KT

Mar-19@
00:00 UTC

Mar-19 @ 00:00 UTC

Mar-19@
12:00 UTC

Mar-19 @ 12:00 UTC

TAF ROAH 182306Z 1900/2006 35014KT 9999 FEW025 SCT045
Wind
  • 350° at 14 KTS
Cloud Levels
  • Few at 2,500' AGL
  • Scattered at 4,500' AGL

Mar-19@
12:00 UTC

Mar-19 @ 12:00 UTC

Mar-19@
21:00 UTC

Mar-19 @ 21:00 UTC

BECMG 1912/1915 06006KT

Becoming

Becoming Conditions expected by Tue, Mar 19, 2019 @ 15:00 UTC

Wind
  • 060° at 6 KTS
Cloud Levels
  • Few at 2,500' AGL
  • Scattered at 4,500' AGL

Mar-19@
21:00 UTC

Mar-19 @ 21:00 UTC

Mar-20@
06:00 UTC

Mar-20 @ 06:00 UTC

BECMG 1921/2000 14008KT

Becoming

Becoming Conditions expected by Wed, Mar 20, 2019 @ 00:00 UTC

Wind
  • 140° at 8 KTS
Cloud Levels
  • Few at 2,500' AGL
  • Scattered at 4,500' AGL